createdAt,value
2019-04-30T00:00:25.774Z,35.78
2019-04-30T00:03:01.303Z,35.76
2019-04-30T00:05:30.536Z,35.44
2019-04-30T00:07:59.703Z,35.26
2019-04-30T00:10:36.074Z,34.85
2019-04-30T00:13:00.087Z,34.73
2019-04-30T00:15:29.762Z,34.81
2019-04-30T00:18:01.857Z,34.68
2019-04-30T00:20:34.219Z,34.66
2019-04-30T00:23:00.753Z,34.74
2019-04-30T00:25:29.947Z,34.78
2019-04-30T00:28:00.390Z,34.74
2019-04-30T00:30:30.191Z,34.77
2019-04-30T00:32:59.367Z,34.84
2019-04-30T00:35:28.617Z,34.69
2019-04-30T00:38:00.210Z,34.44
2019-04-30T00:40:30.254Z,34.39
2019-04-30T00:43:00.101Z,34.29
2019-04-30T00:45:30.506Z,34.12
2019-04-30T00:47:59.724Z,34.04
2019-04-30T00:50:29.198Z,34.01
2019-04-30T00:52:59.985Z,33.86
2019-04-30T00:55:29.208Z,33.78
2019-04-30T00:57:58.678Z,33.86
2019-04-30T01:00:29.715Z,34.12
2019-04-30T01:03:05.900Z,34.22
2019-04-30T01:05:35.342Z,34.22
2019-04-30T01:08:07.114Z,34.15
2019-04-30T01:10:36.636Z,34.21
2019-04-30T01:13:08.196Z,34.22
2019-04-30T01:15:39.058Z,34.24
2019-04-30T01:18:09.361Z,34.21
2019-04-30T01:20:40.622Z,34.34
2019-04-30T01:23:11.395Z,34.41
2019-04-30T01:25:43.208Z,34.31
2019-04-30T01:28:16.491Z,33.93
2019-04-30T01:30:43.495Z,33.57
2019-04-30T01:33:13.079Z,33.27
2019-04-30T01:35:42.396Z,33.07
2019-04-30T01:38:12.818Z,32.92
2019-04-30T01:40:47.398Z,32.66
2019-04-30T01:43:14.779Z,32.59
2019-04-30T01:45:44.023Z,32.40
2019-04-30T01:48:13.328Z,32.33
2019-04-30T01:50:42.780Z,32.45
2019-04-30T01:53:13.337Z,32.61
2019-04-30T01:56:00.095Z,32.60
2019-04-30T01:58:35.423Z,32.38
2019-04-30T02:01:09.563Z,32.10
2019-04-30T02:03:40.033Z,31.90
2019-04-30T02:06:11.508Z,31.79
2019-04-30T02:08:42.464Z,31.67
2019-04-30T02:11:11.701Z,31.59
2019-04-30T02:13:40.946Z,31.55
2019-04-30T02:16:10.215Z,31.55
2019-04-30T02:18:39.564Z,31.47
2019-04-30T02:21:08.976Z,31.15
2019-04-30T02:23:39.784Z,30.97
2019-04-30T02:26:09.215Z,30.71
2019-04-30T02:28:39.356Z,30.57
2019-04-30T02:31:09.309Z,30.42
2019-04-30T02:33:40.613Z,30.48
2019-04-30T02:36:40.311Z,30.43
2019-04-30T02:39:11.114Z,30.50
2019-04-30T02:41:41.336Z,30.77
2019-04-30T02:44:13.160Z,30.65
2019-04-30T02:46:44.294Z,30.39
2019-04-30T02:49:15.350Z,30.46
2019-04-30T02:51:46.401Z,30.53
2019-04-30T02:54:23.673Z,30.59
2019-04-30T02:56:59.603Z,30.43
2019-04-30T02:59:30.081Z,30.20
2019-04-30T03:01:59.872Z,30.12
2019-04-30T03:04:29.535Z,30.06
2019-04-30T03:06:59.810Z,30.02
2019-04-30T03:09:29.822Z,30.06
2019-04-30T03:12:00.182Z,30.10
2019-04-30T03:14:30.208Z,29.85
2019-04-30T03:17:16.586Z,29.79
2019-04-30T03:20:03.510Z,29.85
2019-04-30T03:22:31.160Z,29.60
2019-04-30T03:25:00.400Z,29.31
2019-04-30T03:27:30.242Z,28.97
2019-04-30T03:30:00.246Z,28.70
2019-04-30T03:32:35.786Z,28.55
2019-04-30T03:35:03.092Z,28.50
2019-04-30T03:37:31.862Z,28.21
2019-04-30T03:40:01.078Z,28.03
2019-04-30T03:42:30.525Z,27.93
2019-04-30T03:44:59.820Z,27.88
2019-04-30T03:47:30.011Z,27.84
2019-04-30T03:49:59.981Z,27.80
2019-04-30T03:52:29.654Z,27.75
2019-04-30T03:55:02.471Z,27.70
2019-04-30T03:57:30.449Z,27.69
2019-04-30T04:00:00.542Z,27.67
2019-04-30T04:02:40.561Z,27.69
2019-04-30T04:05:29.892Z,27.65
2019-04-30T04:08:04.957Z,27.59
2019-04-30T04:10:43.016Z,27.53
2019-04-30T04:13:12.633Z,27.49
2019-04-30T04:15:41.876Z,27.53
2019-04-30T04:18:11.122Z,27.54
2019-04-30T04:20:42.797Z,27.57
2019-04-30T04:23:12.269Z,27.67
2019-04-30T04:25:41.589Z,27.67
2019-04-30T04:28:10.799Z,27.75
2019-04-30T04:30:42.936Z,27.84
2019-04-30T04:33:10.972Z,27.99
2019-04-30T04:35:40.179Z,28.12
2019-04-30T04:38:12.564Z,28.25
2019-04-30T04:40:40.878Z,28.48
2019-04-30T04:43:10.620Z,28.64
2019-04-30T04:45:43.693Z,28.82
2019-04-30T04:48:11.108Z,28.97
2019-04-30T04:50:40.315Z,29.05
2019-04-30T04:53:12.182Z,29.13
2019-04-30T04:55:41.415Z,29.18
2019-04-30T04:58:12.878Z,29.20
2019-04-30T05:00:42.307Z,29.32
2019-04-30T05:03:25.919Z,29.45
2019-04-30T05:05:55.221Z,29.64
2019-04-30T05:08:24.450Z,29.85
2019-04-30T05:10:53.768Z,30.05
2019-04-30T05:13:23.041Z,30.34
2019-04-30T05:15:52.279Z,30.55
2019-04-30T05:18:22.830Z,30.77
2019-04-30T05:20:52.194Z,31.13
2019-04-30T05:23:21.940Z,31.41
2019-04-30T05:25:51.455Z,31.63
2019-04-30T05:28:20.686Z,32.03
2019-04-30T05:30:49.906Z,32.21
2019-04-30T05:33:19.140Z,32.25
2019-04-30T05:35:49.578Z,32.35
2019-04-30T05:38:19.047Z,32.54
2019-04-30T05:40:49.564Z,32.64
2019-04-30T05:43:19.274Z,32.68
2019-04-30T05:45:49.201Z,32.66
2019-04-30T05:48:18.872Z,32.60
2019-04-30T05:50:51.427Z,32.58
2019-04-30T05:53:19.146Z,32.70
2019-04-30T05:55:49.398Z,32.75
2019-04-30T05:58:19.802Z,32.83
2019-04-30T06:00:50.085Z,32.72
2019-04-30T06:03:28.180Z,32.67
2019-04-30T06:05:50.709Z,32.51
2019-04-30T06:08:22.400Z,32.34
2019-04-30T06:11:02.203Z,32.03
2019-04-30T06:13:43.130Z,31.93
2019-04-30T06:16:15.459Z,31.63
2019-04-30T06:18:44.964Z,30.96
2019-04-30T06:21:14.306Z,30.67
2019-04-30T06:23:43.530Z,30.40
2019-04-30T06:26:13.656Z,30.19
2019-04-30T06:28:43.035Z,29.75
2019-04-30T06:31:12.363Z,29.67
2019-04-30T06:33:41.710Z,29.51
2019-04-30T06:36:11.876Z,29.42
2019-04-30T06:38:41.093Z,29.29
2019-04-30T06:41:10.308Z,29.12
2019-04-30T06:43:39.695Z,29.04
2019-04-30T06:46:09.009Z,28.23
2019-04-30T06:48:41.927Z,28.34
2019-04-30T06:51:10.870Z,27.95
2019-04-30T06:53:40.121Z,27.50
2019-04-30T06:56:09.357Z,27.52
2019-04-30T06:58:38.860Z,27.20
2019-04-30T07:01:09.861Z,27.32
2019-04-30T07:03:39.148Z,27.50
2019-04-30T07:06:08.492Z,27.49
2019-04-30T07:08:59.656Z,27.19
2019-04-30T07:11:33.086Z,27.17
2019-04-30T07:14:02.432Z,27.63
2019-04-30T07:16:31.762Z,27.54
2019-04-30T07:19:01.035Z,27.50
2019-04-30T07:21:31.726Z,26.93
2019-04-30T07:24:01.034Z,26.29
2019-04-30T07:26:30.477Z,25.81
2019-04-30T07:29:02.593Z,25.70
2019-04-30T07:31:30.927Z,25.17
2019-04-30T07:34:00.220Z,25.21
2019-04-30T07:36:45.818Z,24.72
2019-04-30T07:39:00.690Z,24.40
2019-04-30T07:41:31.303Z,24.30
2019-04-30T07:44:00.665Z,23.87
2019-04-30T07:46:34.748Z,24.00
2019-04-30T07:49:01.006Z,23.37
2019-04-30T07:51:31.938Z,23.20
2019-04-30T07:54:01.488Z,23.45
2019-04-30T07:56:37.207Z,22.89
2019-04-30T07:59:02.887Z,22.65
2019-04-30T08:01:32.856Z,22.29
2019-04-30T08:04:11.217Z,22.21
2019-04-30T08:06:40.731Z,22.24
2019-04-30T08:09:10.857Z,22.48
2019-04-30T08:11:43.418Z,22.49
2019-04-30T08:14:11.674Z,22.42
2019-04-30T08:16:41.226Z,22.46
2019-04-30T08:19:10.503Z,22.55
2019-04-30T08:21:41.093Z,22.69
2019-04-30T08:24:10.321Z,23.12
2019-04-30T08:26:39.885Z,23.63
2019-04-30T08:29:09.716Z,23.99
2019-04-30T08:31:40.930Z,24.06
2019-04-30T08:34:10.977Z,23.79
2019-04-30T08:36:40.778Z,23.46
2019-04-30T08:39:09.996Z,23.20
2019-04-30T08:41:39.369Z,22.49
2019-04-30T08:44:09.402Z,21.78
2019-04-30T08:46:38.793Z,21.85
2019-04-30T08:49:09.651Z,21.72
2019-04-30T08:51:39.774Z,21.69
2019-04-30T08:54:09.660Z,21.36
2019-04-30T08:56:39.013Z,21.06
2019-04-30T08:59:10.851Z,20.76
2019-04-30T09:01:39.482Z,20.35
2019-04-30T09:04:10.495Z,20.77
2019-04-30T09:06:40.189Z,21.73
2019-04-30T09:09:16.351Z,21.97
2019-04-30T09:11:52.916Z,21.85
2019-04-30T09:14:18.548Z,22.80
2019-04-30T09:16:49.487Z,23.06
2019-04-30T09:19:20.982Z,23.10
2019-04-30T09:21:49.981Z,23.35
2019-04-30T09:24:19.343Z,23.55
2019-04-30T09:26:49.284Z,23.43
2019-04-30T09:29:19.173Z,23.26
2019-04-30T09:31:49.350Z,23.14
2019-04-30T09:34:21.027Z,23.38
2019-04-30T09:36:49.983Z,23.70
2019-04-30T09:39:19.895Z,23.90
2019-04-30T09:41:50.206Z,24.19
2019-04-30T09:44:20.333Z,24.14
2019-04-30T09:46:50.689Z,23.80
2019-04-30T09:49:20.168Z,23.91
2019-04-30T09:51:50.246Z,24.42
2019-04-30T09:54:20.543Z,24.69
2019-04-30T09:56:52.685Z,24.57
2019-04-30T09:59:21.274Z,24.86
2019-04-30T10:01:50.542Z,25.47
2019-04-30T10:04:20.873Z,25.51
2019-04-30T10:06:50.445Z,25.11
2019-04-30T10:09:19.717Z,24.79
2019-04-30T10:12:09.697Z,24.80
2019-04-30T10:14:40.964Z,24.98
2019-04-30T10:17:32.588Z,24.73
2019-04-30T10:20:02.177Z,25.28
2019-04-30T10:22:31.447Z,25.42
2019-04-30T10:25:01.064Z,24.86
2019-04-30T10:27:30.382Z,25.01
2019-04-30T10:30:00.109Z,25.19
2019-04-30T10:32:30.100Z,25.10
2019-04-30T10:35:00.575Z,24.80
2019-04-30T10:37:29.893Z,24.46
2019-04-30T10:40:00.741Z,23.71
2019-04-30T10:42:30.030Z,23.51
2019-04-30T10:45:00.251Z,23.29
2019-04-30T10:47:32.458Z,23.26
2019-04-30T10:50:01.640Z,23.13
2019-04-30T10:52:31.032Z,22.66
2019-04-30T10:55:00.605Z,21.99
2019-04-30T10:57:29.871Z,21.86
2019-04-30T11:00:00.064Z,21.78
2019-04-30T11:02:31.195Z,21.79
2019-04-30T11:05:00.273Z,22.67
2019-04-30T11:07:29.697Z,23.52
2019-04-30T11:09:59.008Z,24.31
2019-04-30T11:12:29.212Z,25.31
2019-04-30T11:14:58.823Z,25.61
2019-04-30T11:17:30.055Z,25.75
2019-04-30T11:19:59.397Z,26.09
2019-04-30T11:22:29.176Z,26.87
2019-04-30T11:25:02.458Z,28.47
2019-04-30T11:27:30.935Z,34.28
2019-04-30T11:30:03.717Z,36.74
2019-04-30T11:32:31.810Z,37.74
2019-04-30T11:35:01.209Z,41.86
2019-04-30T11:37:30.613Z,44.97
2019-04-30T11:39:59.935Z,46.08
2019-04-30T11:42:32.217Z,47.35
2019-04-30T11:45:01.004Z,48.80
2019-04-30T11:47:33.425Z,49.20
2019-04-30T11:50:03.965Z,49.84
2019-04-30T11:52:33.328Z,50.59
2019-04-30T11:55:02.651Z,51.15
2019-04-30T11:57:31.905Z,52.06
2019-04-30T12:00:01.156Z,52.65
2019-04-30T12:02:40.741Z,53.33
2019-04-30T12:05:13.793Z,53.89
2019-04-30T12:08:05.330Z,54.74
2019-04-30T12:10:59.590Z,55.09
2019-04-30T12:13:38.269Z,55.41
2019-04-30T12:16:08.686Z,56.24
2019-04-30T12:18:38.020Z,56.72
2019-04-30T12:21:07.392Z,57.13
2019-04-30T12:23:36.650Z,57.39
2019-04-30T12:26:05.873Z,57.15
2019-04-30T12:28:35.469Z,57.27
2019-04-30T12:31:05.950Z,57.65
2019-04-30T12:33:35.370Z,57.67
2019-04-30T12:36:06.356Z,57.90
2019-04-30T12:38:36.210Z,57.79
2019-04-30T12:41:05.693Z,57.54
2019-04-30T12:43:35.253Z,57.26
2019-04-30T12:46:05.668Z,56.79
2019-04-30T12:49:00.068Z,56.29
2019-04-30T12:51:45.554Z,55.81
2019-04-30T12:54:14.952Z,55.19
2019-04-30T12:57:01.843Z,54.63
2019-04-30T12:59:31.373Z,54.30
2019-04-30T13:02:00.599Z,54.09
2019-04-30T13:04:29.833Z,53.64
2019-04-30T13:07:02.171Z,53.01
2019-04-30T13:09:31.127Z,52.39
2019-04-30T13:12:01.937Z,52.14
2019-04-30T13:14:32.470Z,52.34
2019-04-30T13:17:02.372Z,52.08
2019-04-30T13:19:31.599Z,51.84
2019-04-30T13:22:00.847Z,51.17
2019-04-30T13:24:31.431Z,50.65
2019-04-30T13:27:00.777Z,49.14
2019-04-30T13:29:47.949Z,47.83
2019-04-30T13:32:27.891Z,47.45
2019-04-30T13:34:52.809Z,47.70
2019-04-30T13:37:22.033Z,47.15
2019-04-30T13:40:01.248Z,46.78
2019-04-30T13:42:34.308Z,47.13
2019-04-30T13:45:03.827Z,47.19
2019-04-30T13:47:33.151Z,46.65
2019-04-30T13:50:02.379Z,45.52
2019-04-30T13:52:31.921Z,45.01
2019-04-30T13:55:01.225Z,45.35
2019-04-30T13:57:30.414Z,45.28
2019-04-30T13:59:59.745Z,45.74
2019-04-30T14:02:32.375Z,45.96
2019-04-30T14:05:15.951Z,46.35
2019-04-30T14:07:54.956Z,46.70
2019-04-30T14:10:24.515Z,46.62
2019-04-30T14:12:57.868Z,46.76
2019-04-30T14:15:29.157Z,46.80
2019-04-30T14:17:59.722Z,46.53
2019-04-30T14:20:29.758Z,47.00
2019-04-30T14:22:58.982Z,47.29
2019-04-30T14:25:28.398Z,46.82
2019-04-30T14:27:59.257Z,46.43
2019-04-30T14:30:29.315Z,43.97
2019-04-30T14:32:59.364Z,42.02
2019-04-30T14:35:28.784Z,39.71
2019-04-30T14:37:59.629Z,38.51
2019-04-30T14:40:30.489Z,37.54
2019-04-30T14:43:08.870Z,36.80
2019-04-30T14:45:55.840Z,36.06
2019-04-30T14:48:32.078Z,35.85
2019-04-30T14:51:01.969Z,35.49
2019-04-30T14:53:49.001Z,34.65
2019-04-30T14:56:40.855Z,34.36
2019-04-30T14:59:35.172Z,34.65
2019-04-30T15:02:13.864Z,34.69
2019-04-30T15:04:43.131Z,35.52
2019-04-30T15:07:12.363Z,35.51
2019-04-30T15:09:41.869Z,35.55
2019-04-30T15:12:11.236Z,35.14
2019-04-30T15:14:41.026Z,34.79
2019-04-30T15:17:10.685Z,34.45
2019-04-30T15:19:40.350Z,33.82
2019-04-30T15:22:09.586Z,33.53
2019-04-30T15:24:39.514Z,34.18
2019-04-30T15:27:09.367Z,34.23
2019-04-30T15:29:39.318Z,34.61
2019-04-30T15:32:08.878Z,34.59
2019-04-30T15:34:40.874Z,34.84
2019-04-30T15:37:19.245Z,34.76
2019-04-30T15:39:42.080Z,34.56
2019-04-30T15:42:12.999Z,33.97
2019-04-30T15:44:45.275Z,33.77
2019-04-30T15:47:13.548Z,33.79
2019-04-30T15:49:42.845Z,33.82
2019-04-30T15:52:12.142Z,33.22
2019-04-30T15:54:41.556Z,32.76
2019-04-30T15:57:10.775Z,33.21
2019-04-30T15:59:44.058Z,33.08
2019-04-30T16:02:56.362Z,33.25
2019-04-30T16:05:43.238Z,33.37
2019-04-30T16:08:35.528Z,33.40
2019-04-30T16:11:20.567Z,32.95
2019-04-30T16:14:18.617Z,33.33
2019-04-30T16:16:58.291Z,33.44
2019-04-30T16:19:28.796Z,33.69
2019-04-30T16:21:58.064Z,33.92
2019-04-30T16:24:28.731Z,34.05
2019-04-30T16:26:59.336Z,34.52
2019-04-30T16:29:28.980Z,34.05
2019-04-30T16:31:59.220Z,33.61
2019-04-30T16:34:30.345Z,33.29
2019-04-30T16:36:59.853Z,33.37
2019-04-30T16:39:29.063Z,33.44
2019-04-30T16:41:59.259Z,33.32
2019-04-30T16:44:28.788Z,33.47
2019-04-30T16:46:59.665Z,33.56
2019-04-30T16:49:29.342Z,33.69
2019-04-30T16:52:01.182Z,33.45
2019-04-30T16:54:29.500Z,33.41
2019-04-30T16:57:04.233Z,33.63
2019-04-30T16:59:38.931Z,34.19
2019-04-30T17:02:09.541Z,34.50
2019-04-30T17:04:57.736Z,34.64
2019-04-30T17:07:32.960Z,34.86
2019-04-30T17:10:14.088Z,35.26
2019-04-30T17:12:53.396Z,35.53
2019-04-30T17:15:25.221Z,35.92
2019-04-30T17:17:54.538Z,36.28
2019-04-30T17:20:23.802Z,36.92
2019-04-30T17:22:53.122Z,37.48
2019-04-30T17:25:22.423Z,38.23
2019-04-30T17:27:51.687Z,39.08
2019-04-30T17:30:21.300Z,39.83
2019-04-30T17:32:50.676Z,40.27
2019-04-30T17:35:19.982Z,40.60
2019-04-30T17:37:49.671Z,41.37
2019-04-30T17:40:19.367Z,41.37
2019-04-30T17:42:48.862Z,41.91
2019-04-30T17:45:19.513Z,42.62
2019-04-30T17:47:49.067Z,43.01
2019-04-30T17:50:18.925Z,43.31
2019-04-30T17:52:48.169Z,43.55
2019-04-30T17:55:19.452Z,44.11
2019-04-30T17:57:48.828Z,44.58
2019-04-30T18:00:22.276Z,45.11
2019-04-30T18:02:50.664Z,45.42
2019-04-30T18:05:20.028Z,45.46
2019-04-30T18:07:49.887Z,45.54
2019-04-30T18:10:21.300Z,45.76
2019-04-30T18:12:50.860Z,45.76
2019-04-30T18:15:23.297Z,45.81
2019-04-30T18:18:09.994Z,45.80
2019-04-30T18:20:50.665Z,45.89
2019-04-30T18:23:38.864Z,46.06
2019-04-30T18:26:11.394Z,46.40
2019-04-30T18:28:40.709Z,46.26
2019-04-30T18:31:10.070Z,46.38
2019-04-30T18:33:40.793Z,46.42
2019-04-30T18:36:10.025Z,46.48
2019-04-30T18:38:39.563Z,46.55
2019-04-30T18:41:09.523Z,46.46
2019-04-30T18:43:40.509Z,46.48
2019-04-30T18:46:10.769Z,46.59
2019-04-30T18:48:40.327Z,46.62
2019-04-30T18:51:29.824Z,46.72
2019-04-30T18:53:41.312Z,46.89
2019-04-30T18:56:14.615Z,46.88
2019-04-30T18:58:43.151Z,46.93
2019-04-30T19:01:12.911Z,46.98
2019-04-30T19:03:42.145Z,47.13
2019-04-30T19:06:23.115Z,47.26
2019-04-30T19:08:58.454Z,47.29
2019-04-30T19:11:50.162Z,47.37
2019-04-30T19:14:49.207Z,47.35
2019-04-30T19:17:39.517Z,47.50
2019-04-30T19:20:28.681Z,47.41
2019-04-30T19:22:58.204Z,47.32
2019-04-30T19:25:28.905Z,47.27
2019-04-30T19:28:09.587Z,47.44
2019-04-30T19:30:32.481Z,47.48
2019-04-30T19:33:00.849Z,47.53
2019-04-30T19:35:30.211Z,47.63
2019-04-30T19:37:59.437Z,47.74
2019-04-30T19:40:28.714Z,47.74
2019-04-30T19:42:58.074Z,47.88
2019-04-30T19:45:27.280Z,47.97
2019-04-30T19:47:58.590Z,48.05
2019-04-30T19:50:27.566Z,48.12
2019-04-30T19:52:58.643Z,48.20
2019-04-30T19:55:28.624Z,48.22
2019-04-30T19:57:59.864Z,48.30
2019-04-30T20:00:30.972Z,48.32
2019-04-30T20:03:00.241Z,48.25
2019-04-30T20:05:29.585Z,48.27
2019-04-30T20:07:59.279Z,48.44
2019-04-30T20:10:28.838Z,48.51
2019-04-30T20:12:58.800Z,48.64
2019-04-30T20:15:29.845Z,48.72
2019-04-30T20:18:01.001Z,48.76
2019-04-30T20:20:30.452Z,48.75
2019-04-30T20:22:59.667Z,48.56
2019-04-30T20:25:28.889Z,48.45
2019-04-30T20:27:58.274Z,48.44
2019-04-30T20:30:29.224Z,48.42
2019-04-30T20:32:59.461Z,48.29
2019-04-30T20:35:28.880Z,48.32
2019-04-30T20:38:21.787Z,48.24
2019-04-30T20:41:00.144Z,48.13
2019-04-30T20:43:22.927Z,47.95
2019-04-30T20:45:52.165Z,47.83
2019-04-30T20:48:22.007Z,47.70
2019-04-30T20:50:51.232Z,47.51
2019-04-30T20:53:20.433Z,47.21
2019-04-30T20:55:49.907Z,46.89
2019-04-30T20:58:19.115Z,46.61
2019-04-30T21:01:00.490Z,46.32
2019-04-30T21:03:19.697Z,46.00
2019-04-30T21:05:49.156Z,45.82
2019-04-30T21:08:18.459Z,45.79
2019-04-30T21:10:49.423Z,45.73
2019-04-30T21:13:19.382Z,45.85
2019-04-30T21:15:49.581Z,45.95
2019-04-30T21:18:19.637Z,45.98
2019-04-30T21:20:49.657Z,45.91
2019-04-30T21:23:19.548Z,45.78
2019-04-30T21:25:49.287Z,45.79
2019-04-30T21:28:19.678Z,45.64
2019-04-30T21:30:49.102Z,45.58
2019-04-30T21:33:38.483Z,45.43
2019-04-30T21:36:11.704Z,45.35
2019-04-30T21:38:41.077Z,45.27
2019-04-30T21:41:10.286Z,45.13
2019-04-30T21:43:39.495Z,45.04
2019-04-30T21:46:09.586Z,45.03
2019-04-30T21:48:39.109Z,44.80
2019-04-30T21:51:09.374Z,44.69
2019-04-30T21:53:39.611Z,44.71
2019-04-30T21:56:09.076Z,44.65
2019-04-30T21:58:39.282Z,44.50
2019-04-30T22:01:27.379Z,44.31
2019-04-30T22:03:56.651Z,44.12
2019-04-30T22:06:25.927Z,44.01
2019-04-30T22:08:55.266Z,43.78
2019-04-30T22:11:24.504Z,43.62
2019-04-30T22:13:53.725Z,43.51
2019-04-30T22:16:23.088Z,43.41
2019-04-30T22:18:52.432Z,43.30
2019-04-30T22:21:21.633Z,43.15
2019-04-30T22:23:51.051Z,43.06
2019-04-30T22:26:20.251Z,42.97
2019-04-30T22:28:49.606Z,43.00
2019-04-30T22:31:19.877Z,42.94
2019-04-30T22:33:49.229Z,42.85
2019-04-30T22:36:32.561Z,42.76
2019-04-30T22:39:26.809Z,42.69
2019-04-30T22:42:20.220Z,42.67
2019-04-30T22:44:49.455Z,42.71
2019-04-30T22:47:18.664Z,42.72
2019-04-30T22:49:48.144Z,42.76
2019-04-30T22:52:17.408Z,42.83
2019-04-30T22:54:46.607Z,42.85
2019-04-30T22:57:15.967Z,42.83
2019-04-30T22:59:50.007Z,42.73
2019-04-30T23:02:35.505Z,42.80
2019-04-30T23:05:07.259Z,42.83
2019-04-30T23:07:36.600Z,42.86
2019-04-30T23:10:08.011Z,42.79
2019-04-30T23:12:37.609Z,42.82
2019-04-30T23:15:07.748Z,42.75
2019-04-30T23:17:37.106Z,42.87
2019-04-30T23:20:07.414Z,43.02
2019-04-30T23:22:36.660Z,43.13
2019-04-30T23:25:06.371Z,43.27
2019-04-30T23:27:35.703Z,43.24
2019-04-30T23:30:05.293Z,43.15
2019-04-30T23:32:34.633Z,43.07
2019-04-30T23:35:04.019Z,43.06
2019-04-30T23:37:33.192Z,43.05
2019-04-30T23:40:24.895Z,43.06
2019-04-30T23:42:54.321Z,43.11
2019-04-30T23:45:23.863Z,43.09
2019-04-30T23:47:53.829Z,43.20
2019-04-30T23:50:23.047Z,43.33
2019-04-30T23:52:52.255Z,43.50
2019-04-30T23:55:21.701Z,43.57
2019-04-30T23:57:50.918Z,43.74
